createdAt,value
2022-08-22T00:01:17.533Z,5.73
2022-08-22T00:02:55.978Z,8.40
2022-08-22T00:03:12.643Z,8.18
2022-08-22T00:06:38.279Z,10.87
2022-08-22T00:11:49.645Z,8.90
2022-08-22T00:17:17.593Z,7.20
2022-08-22T00:22:35.451Z,9.80
2022-08-22T00:28:10.187Z,10.13
2022-08-22T00:33:29.244Z,10.20
2022-08-22T00:38:35.412Z,9.80
2022-08-22T00:44:01.987Z,7.07
2022-08-22T00:49:22.458Z,7.43
2022-08-22T00:54:45.607Z,9.87
2022-08-22T01:00:14.952Z,8.80
2022-08-22T01:05:47.611Z,11.00
2022-08-22T01:10:49.858Z,10.50
2022-08-22T01:16:23.704Z,12.03
2022-08-22T01:21:52.130Z,7.97
2022-08-22T01:27:15.918Z,11.97
2022-08-22T01:32:49.496Z,12.50
2022-08-22T01:38:22.757Z,12.65
2022-08-22T01:43:59.624Z,8.57
2022-08-22T01:49:00.553Z,8.97
2022-08-22T01:54:08.334Z,8.47
2022-08-22T01:59:21.142Z,8.90
2022-08-22T02:04:47.484Z,10.97
2022-08-22T02:10:01.610Z,12.73
2022-08-22T02:15:14.949Z,17.20
2022-08-22T02:20:23.072Z,13.30
2022-08-22T02:25:36.457Z,12.80
2022-08-22T02:30:41.658Z,10.67
2022-08-22T02:35:54.912Z,10.03
2022-08-22T02:41:10.851Z,12.60
2022-08-22T02:46:32.799Z,13.00
2022-08-22T02:52:04.459Z,13.93
2022-08-22T02:57:14.785Z,13.07
2022-08-22T03:02:40.321Z,11.93
2022-08-22T03:07:49.500Z,14.23
2022-08-22T03:13:00.776Z,12.00
2022-08-22T03:18:40.277Z,17.93
2022-08-22T03:23:57.006Z,18.35
2022-08-22T03:29:35.342Z,15.73
2022-08-22T03:34:38.779Z,23.63
2022-08-22T03:39:51.689Z,23.10
2022-08-22T03:45:32.732Z,34.60
2022-08-22T03:50:54.444Z,30.40
2022-08-22T03:56:36.748Z,33.03
2022-08-22T04:02:24.797Z,25.57
2022-08-22T04:07:42.729Z,29.97
2022-08-22T04:13:16.130Z,34.37
2022-08-22T04:18:38.231Z,37.17
2022-08-22T04:23:52.424Z,43.43
2022-08-22T04:29:05.056Z,44.57
2022-08-22T04:34:19.077Z,49.13
2022-08-22T04:39:34.774Z,48.73
2022-08-22T04:44:44.846Z,45.00
2022-08-22T04:49:56.304Z,51.83
2022-08-22T04:54:58.451Z,45.77
2022-08-22T05:00:07.023Z,51.23
2022-08-22T05:05:13.993Z,50.33
2022-08-22T05:10:19.214Z,51.53
2022-08-22T05:15:27.916Z,50.43
2022-08-22T05:20:31.530Z,53.15
2022-08-22T05:25:36.379Z,52.30
2022-08-22T05:30:39.552Z,52.00
2022-08-22T05:35:52.459Z,53.43
2022-08-22T05:41:08.171Z,52.73
2022-08-22T05:46:36.075Z,52.00
2022-08-22T05:52:00.286Z,50.83
2022-08-22T05:57:17.539Z,54.70
2022-08-22T06:02:30.084Z,60.03
2022-08-22T06:07:42.026Z,59.33
2022-08-22T06:13:03.948Z,69.80
2022-08-22T06:18:09.590Z,63.30
2022-08-22T06:23:16.700Z,66.13
2022-08-22T06:28:23.503Z,65.47
2022-08-22T06:33:31.563Z,62.27
2022-08-22T06:39:06.475Z,67.65
2022-08-22T06:44:10.789Z,58.43
2022-08-22T06:49:13.747Z,65.27
2022-08-22T06:54:22.552Z,72.50
2022-08-22T06:59:28.652Z,67.93
2022-08-22T07:04:31.919Z,72.03
2022-08-22T07:09:41.725Z,72.60
2022-08-22T07:14:49.828Z,71.67
2022-08-22T07:20:22.684Z,60.88
2022-08-22T07:25:25.812Z,57.25
2022-08-22T07:30:39.918Z,48.90
2022-08-22T07:35:53.225Z,47.58
2022-08-22T07:41:12.416Z,46.00
2022-08-22T07:46:18.895Z,47.75
2022-08-22T07:51:35.827Z,38.65
2022-08-22T07:57:02.189Z,43.50
2022-08-22T08:02:09.429Z,47.03
2022-08-22T08:07:14.761Z,41.42
2022-08-22T08:12:19.668Z,46.03
2022-08-22T08:17:32.232Z,48.72
2022-08-22T08:22:35.091Z,50.17
2022-08-22T08:27:57.410Z,49.58
2022-08-22T08:33:24.942Z,53.08
2022-08-22T08:38:26.855Z,51.30
2022-08-22T08:43:51.161Z,39.03
2022-08-22T08:49:08.783Z,44.42
2022-08-22T08:54:29.690Z,36.55
2022-08-22T09:00:12.303Z,46.20
2022-08-22T09:05:48.568Z,41.40
2022-08-22T09:11:15.997Z,46.85
2022-08-22T09:16:30.781Z,43.38
2022-08-22T09:22:14.689Z,40.60
2022-08-22T09:27:39.664Z,48.38
2022-08-22T09:32:57.528Z,45.13
2022-08-22T09:38:23.885Z,46.20
2022-08-22T09:43:48.770Z,41.58
2022-08-22T09:49:12.873Z,43.85
2022-08-22T09:54:20.989Z,45.97
2022-08-22T09:59:44.174Z,59.03
2022-08-22T10:04:58.196Z,42.33
2022-08-22T10:10:14.100Z,39.65
2022-08-22T10:15:25.731Z,35.08
2022-08-22T10:20:42.778Z,29.38
2022-08-22T10:25:57.200Z,29.10
2022-08-22T10:31:09.489Z,33.88
2022-08-22T10:36:19.856Z,33.95
2022-08-22T10:41:32.307Z,32.70
2022-08-22T10:46:50.561Z,37.90
2022-08-22T10:52:09.679Z,33.45
2022-08-22T10:57:41.505Z,32.15
2022-08-22T11:02:45.049Z,31.30
2022-08-22T11:08:11.244Z,32.08
2022-08-22T11:13:28.562Z,25.45
2022-08-22T11:19:14.696Z,20.73
2022-08-22T11:24:57.079Z,22.98
2022-08-22T11:30:19.675Z,16.80
2022-08-22T11:35:32.501Z,12.93
2022-08-22T11:41:31.498Z,12.52
2022-08-22T11:46:39.849Z,11.93
2022-08-22T11:52:17.444Z,13.15
2022-08-22T11:57:34.307Z,11.30
2022-08-22T12:02:48.163Z,9.00
2022-08-22T12:08:01.446Z,12.45
2022-08-22T12:13:35.201Z,8.80
2022-08-22T12:19:00.134Z,8.55
2022-08-22T12:24:20.774Z,9.70
2022-08-22T12:30:12.989Z,9.00
2022-08-22T12:35:40.584Z,10.15
2022-08-22T12:40:58.106Z,8.73
2022-08-22T12:46:12.953Z,5.70
2022-08-22T12:51:25.159Z,11.52
2022-08-22T12:56:54.774Z,8.52
2022-08-22T13:02:01.955Z,7.10
2022-08-22T13:07:26.872Z,11.10
2022-08-22T13:12:46.927Z,4.80
2022-08-22T13:17:51.662Z,7.45
2022-08-22T13:22:54.824Z,5.45
2022-08-22T13:28:00.799Z,7.57
2022-08-22T13:33:10.967Z,8.45
2022-08-22T13:38:26.244Z,9.60
2022-08-22T13:43:50.039Z,10.50
2022-08-22T13:49:01.000Z,8.98
2022-08-22T13:54:27.063Z,13.75
2022-08-22T13:59:53.624Z,10.30
2022-08-22T14:05:04.498Z,11.85
2022-08-22T14:10:23.867Z,10.10
2022-08-22T14:15:45.426Z,16.35
2022-08-22T14:20:49.057Z,6.82
2022-08-22T14:25:51.937Z,9.02
2022-08-22T14:31:14.628Z,8.23
2022-08-22T14:36:20.949Z,13.70
2022-08-22T14:41:52.587Z,9.07
2022-08-22T14:47:01.302Z,7.43
2022-08-22T14:52:08.789Z,9.05
2022-08-22T14:57:20.163Z,11.13
2022-08-22T15:02:32.118Z,8.45
2022-08-22T15:07:37.537Z,7.75
2022-08-22T15:12:50.106Z,12.80
2022-08-22T15:17:53.316Z,6.75
2022-08-22T15:22:59.319Z,12.70
2022-08-22T15:28:13.931Z,15.07
2022-08-22T15:33:27.060Z,9.13
2022-08-22T15:38:36.329Z,8.10
2022-08-22T15:43:48.346Z,10.03
2022-08-22T15:49:07.283Z,7.45
2022-08-22T15:54:24.898Z,12.63
2022-08-22T15:59:53.504Z,14.63
2022-08-22T16:05:25.869Z,13.45
2022-08-22T16:10:32.807Z,10.95
2022-08-22T16:16:30.530Z,9.68
2022-08-22T16:21:32.764Z,10.77
2022-08-22T16:26:43.096Z,11.77
2022-08-22T16:31:48.214Z,21.27
2022-08-22T16:37:08.884Z,17.42
2022-08-22T16:42:14.621Z,13.00
2022-08-22T16:47:42.059Z,10.63
2022-08-22T16:52:54.616Z,17.00
2022-08-22T16:58:08.928Z,19.27
2022-08-22T17:03:18.515Z,30.23
2022-08-22T17:08:36.596Z,15.80
2022-08-22T17:14:09.276Z,11.45
2022-08-22T17:19:43.734Z,23.33
2022-08-22T17:24:49.569Z,11.27
2022-08-22T17:30:10.589Z,14.90
2022-08-22T17:35:55.481Z,9.25
2022-08-22T17:41:32.464Z,9.93
2022-08-22T17:46:46.924Z,12.25
2022-08-22T17:52:15.383Z,10.73
2022-08-22T17:57:31.376Z,12.93
2022-08-22T18:02:53.861Z,12.90
2022-08-22T18:08:36.957Z,10.13
2022-08-22T18:13:33.914Z,11.48
2022-08-22T18:19:15.041Z,12.93
2022-08-22T18:24:47.098Z,18.55
2022-08-22T18:30:07.213Z,15.38
2022-08-22T18:35:15.955Z,14.97
2022-08-22T18:40:34.304Z,14.90
2022-08-22T18:45:48.955Z,14.63
2022-08-22T18:50:51.833Z,22.75
2022-08-22T18:55:57.446Z,19.30
2022-08-22T19:01:19.556Z,20.65
2022-08-22T19:06:28.672Z,17.35
2022-08-22T19:11:37.164Z,15.55
2022-08-22T19:17:04.290Z,13.68
2022-08-22T19:22:29.308Z,14.30
2022-08-22T19:27:34.243Z,10.52
2022-08-22T19:32:45.807Z,15.40
2022-08-22T19:37:53.917Z,18.40
2022-08-22T19:42:56.703Z,18.77
2022-08-22T19:48:13.630Z,29.13
2022-08-22T19:53:53.990Z,13.85
2022-08-22T19:59:14.009Z,14.20
2022-08-22T20:04:53.003Z,14.10
2022-08-22T20:10:09.444Z,21.25
2022-08-22T20:15:24.449Z,12.60
2022-08-22T20:20:35.479Z,11.43
2022-08-22T20:25:44.089Z,14.15
2022-08-22T20:30:50.737Z,10.45
2022-08-22T20:35:56.364Z,22.05
2022-08-22T20:41:13.424Z,17.75
2022-08-22T20:46:21.261Z,14.80
2022-08-22T20:51:29.499Z,12.43
2022-08-22T20:56:53.013Z,8.63
2022-08-22T21:02:16.617Z,9.95
2022-08-22T21:07:26.031Z,7.30
2022-08-22T21:12:28.376Z,8.52
2022-08-22T21:17:34.528Z,9.70
2022-08-22T21:22:41.822Z,11.23
2022-08-22T21:27:47.500Z,10.05
2022-08-22T21:32:55.551Z,13.73
2022-08-22T21:37:59.966Z,17.92
2022-08-22T21:43:05.911Z,25.58
2022-08-22T21:48:31.264Z,18.60
2022-08-22T21:53:33.517Z,15.82
2022-08-22T21:58:37.389Z,18.13
2022-08-22T22:03:39.973Z,16.70
2022-08-22T22:08:42.324Z,20.77
2022-08-22T22:13:45.268Z,18.55
2022-08-22T22:18:47.531Z,13.60
2022-08-22T22:23:50.889Z,16.70
2022-08-22T22:28:53.285Z,14.70
2022-08-22T22:33:55.603Z,11.43
2022-08-22T22:38:57.802Z,13.88
2022-08-22T22:44:03.401Z,22.33
2022-08-22T22:49:06.131Z,11.65
2022-08-22T22:54:08.422Z,13.13
2022-08-22T22:59:15.724Z,19.30
2022-08-22T23:04:19.610Z,18.23
2022-08-22T23:09:21.861Z,17.05
2022-08-22T23:14:35.156Z,17.88
2022-08-22T23:19:39.132Z,17.70
2022-08-22T23:24:42.202Z,12.27
2022-08-22T23:29:44.599Z,11.73
2022-08-22T23:34:48.943Z,12.30
2022-08-22T23:39:51.417Z,14.57
2022-08-22T23:44:53.718Z,15.45
2022-08-22T23:49:55.923Z,14.17
2022-08-22T23:54:58.203Z,14.75
